createdAt,value
2023-11-13T00:01:34.640Z,6.45
2023-11-13T00:04:01.340Z,6.45
2023-11-13T00:06:28.210Z,5.75
2023-11-13T00:08:54.672Z,5.97
2023-11-13T00:11:21.623Z,6.18
2023-11-13T00:13:48.587Z,6.65
2023-11-13T00:16:15.421Z,6.45
2023-11-13T00:18:42.398Z,6.35
2023-11-13T00:21:08.894Z,6.68
2023-11-13T00:23:38.421Z,7.13
2023-11-13T00:26:05.826Z,7.05
2023-11-13T00:28:32.313Z,6.78
2023-11-13T00:30:58.812Z,7.60
2023-11-13T00:33:25.700Z,7.30
2023-11-13T00:35:52.190Z,7.00
2023-11-13T00:38:18.799Z,6.47
2023-11-13T00:40:45.332Z,6.78
2023-11-13T00:43:11.889Z,7.22
2023-11-13T00:45:38.520Z,6.68
2023-11-13T00:48:05.142Z,6.78
2023-11-13T00:50:32.910Z,5.93
2023-11-13T00:52:59.479Z,6.75
2023-11-13T00:55:26.948Z,6.93
2023-11-13T00:57:53.631Z,7.07
2023-11-13T01:00:22.295Z,6.47
2023-11-13T01:02:49.281Z,6.60
2023-11-13T01:05:15.995Z,7.10
2023-11-13T01:07:42.503Z,7.15
2023-11-13T01:10:09.337Z,7.63
2023-11-13T01:12:36.563Z,6.15
2023-11-13T01:15:05.913Z,7.28
2023-11-13T01:17:32.515Z,6.45
2023-11-13T01:19:59.436Z,6.25
2023-11-13T01:22:27.070Z,6.85
2023-11-13T01:24:53.743Z,6.63
2023-11-13T01:27:20.256Z,7.13
2023-11-13T01:29:46.800Z,6.97
2023-11-13T01:32:13.789Z,6.25
2023-11-13T01:34:40.297Z,5.75
2023-11-13T01:37:06.864Z,6.28
2023-11-13T01:39:33.982Z,5.85
2023-11-13T01:42:00.566Z,5.30
2023-11-13T01:44:27.175Z,6.25
2023-11-13T01:46:53.937Z,6.05
2023-11-13T01:49:21.278Z,7.22
2023-11-13T01:51:49.067Z,5.20
2023-11-13T01:54:16.755Z,6.32
2023-11-13T01:56:44.327Z,6.10
2023-11-13T01:59:13.267Z,6.95
2023-11-13T02:01:41.251Z,7.07
2023-11-13T02:04:08.048Z,6.07
2023-11-13T02:06:34.545Z,6.75
2023-11-13T02:09:01.136Z,8.10
2023-11-13T02:11:27.740Z,7.78
2023-11-13T02:13:54.851Z,7.95
2023-11-13T02:16:21.489Z,7.95
2023-11-13T02:18:48.620Z,8.05
2023-11-13T02:21:15.124Z,8.20
2023-11-13T02:23:41.639Z,7.60
2023-11-13T02:26:13.195Z,6.57
2023-11-13T02:28:39.662Z,6.47
2023-11-13T02:31:06.200Z,6.93
2023-11-13T02:33:32.655Z,5.88
2023-11-13T02:35:59.329Z,7.40
2023-11-13T02:38:25.804Z,6.53
2023-11-13T02:40:52.572Z,6.00
2023-11-13T02:43:19.367Z,6.50
2023-11-13T02:45:45.884Z,6.38
2023-11-13T02:48:12.463Z,6.22
2023-11-13T02:50:38.955Z,7.20
2023-11-13T02:53:05.503Z,6.25
2023-11-13T02:55:31.959Z,7.20
2023-11-13T02:57:58.464Z,6.90
2023-11-13T03:00:25.074Z,6.55
2023-11-13T03:02:52.192Z,7.22
2023-11-13T03:05:18.826Z,6.22
2023-11-13T03:07:45.552Z,6.78
2023-11-13T03:10:12.380Z,7.35
2023-11-13T03:12:40.619Z,6.47
2023-11-13T03:15:07.383Z,6.65
2023-11-13T03:17:33.872Z,6.35
2023-11-13T03:20:00.434Z,6.28
2023-11-13T03:22:26.980Z,7.07
2023-11-13T03:24:53.457Z,6.72
2023-11-13T03:27:19.956Z,7.40
2023-11-13T03:29:46.479Z,7.00
2023-11-13T03:32:13.056Z,7.05
2023-11-13T03:34:39.601Z,6.60
2023-11-13T03:37:06.165Z,6.75
2023-11-13T03:39:32.686Z,5.95
2023-11-13T03:41:59.182Z,6.43
2023-11-13T03:44:25.831Z,6.28
2023-11-13T03:46:53.026Z,6.18
2023-11-13T03:49:19.750Z,6.70
2023-11-13T03:51:46.433Z,6.45
2023-11-13T03:54:12.883Z,6.10
2023-11-13T03:56:39.528Z,6.53
2023-11-13T03:59:06.031Z,6.97
2023-11-13T04:01:32.613Z,6.50
2023-11-13T04:03:59.316Z,6.95
2023-11-13T04:06:25.987Z,5.97
2023-11-13T04:08:52.483Z,6.10
2023-11-13T04:11:19.013Z,7.05
2023-11-13T04:13:46.292Z,6.30
2023-11-13T04:16:13.027Z,6.05
2023-11-13T04:18:39.577Z,6.18
2023-11-13T04:21:06.006Z,6.03
2023-11-13T04:23:32.534Z,6.05
2023-11-13T04:26:00.512Z,6.55
2023-11-13T04:28:32.122Z,6.30
2023-11-13T04:30:58.931Z,6.18
2023-11-13T04:33:25.536Z,6.03
2023-11-13T04:35:52.187Z,6.68
2023-11-13T04:38:18.755Z,6.30
2023-11-13T04:40:46.568Z,6.28
2023-11-13T04:43:13.436Z,6.40
2023-11-13T04:45:40.650Z,6.03
2023-11-13T04:48:07.401Z,6.38
2023-11-13T04:50:33.952Z,5.75
2023-11-13T04:53:00.640Z,5.55
2023-11-13T04:55:27.327Z,6.25
2023-11-13T04:57:53.852Z,6.40
2023-11-13T05:00:21.010Z,5.22
2023-11-13T05:02:47.584Z,6.03
2023-11-13T05:05:14.644Z,5.72
2023-11-13T05:07:41.180Z,6.72
2023-11-13T05:10:07.945Z,6.82
2023-11-13T05:12:34.525Z,9.68
2023-11-13T05:15:01.079Z,10.40
2023-11-13T05:17:28.720Z,9.80
2023-11-13T05:19:55.309Z,17.42
2023-11-13T05:22:21.858Z,8.70
2023-11-13T05:24:48.592Z,8.02
2023-11-13T05:27:15.062Z,7.38
2023-11-13T05:29:42.199Z,6.55
2023-11-13T05:32:09.910Z,7.13
2023-11-13T05:34:36.381Z,7.97
2023-11-13T05:37:02.891Z,7.80
2023-11-13T05:39:31.008Z,7.20
2023-11-13T05:41:57.620Z,7.30
2023-11-13T05:44:24.033Z,7.82
2023-11-13T05:46:50.743Z,10.40
2023-11-13T05:49:17.304Z,9.30
2023-11-13T05:51:43.797Z,9.68
2023-11-13T05:54:10.330Z,8.73
2023-11-13T05:56:36.847Z,8.43
2023-11-13T05:59:04.285Z,9.55
2023-11-13T06:01:33.000Z,10.35
2023-11-13T06:04:00.030Z,8.27
2023-11-13T06:06:26.716Z,7.53
2023-11-13T06:08:53.210Z,8.95
2023-11-13T06:11:20.701Z,7.45
2023-11-13T06:13:47.745Z,8.00
2023-11-13T06:16:14.421Z,7.82
2023-11-13T06:18:47.822Z,7.30
2023-11-13T06:21:14.416Z,8.00
2023-11-13T06:23:44.475Z,7.07
2023-11-13T06:26:13.770Z,7.18
2023-11-13T06:28:40.417Z,6.93
2023-11-13T06:31:07.530Z,6.43
2023-11-13T06:33:34.419Z,6.70
2023-11-13T06:36:00.933Z,7.55
2023-11-13T06:38:27.366Z,7.50
2023-11-13T06:40:54.999Z,6.63
2023-11-13T06:43:21.612Z,7.25
2023-11-13T06:45:48.627Z,7.15
2023-11-13T06:48:15.182Z,8.35
2023-11-13T06:50:41.650Z,7.25
2023-11-13T06:53:08.950Z,8.05
2023-11-13T06:55:35.665Z,8.10
2023-11-13T06:58:02.201Z,7.28
2023-11-13T07:00:28.759Z,7.00
2023-11-13T07:02:55.259Z,8.18
2023-11-13T07:05:23.451Z,7.55
2023-11-13T07:07:52.213Z,8.20
2023-11-13T07:10:20.095Z,6.88
2023-11-13T07:12:46.660Z,10.70
2023-11-13T07:15:13.309Z,6.13
2023-11-13T07:17:39.811Z,7.57
2023-11-13T07:20:07.884Z,6.65
2023-11-13T07:22:34.455Z,8.10
2023-11-13T07:25:01.129Z,7.35
2023-11-13T07:27:28.175Z,7.18
2023-11-13T07:29:55.717Z,7.97
2023-11-13T07:32:22.374Z,7.15
2023-11-13T07:34:49.619Z,7.45
2023-11-13T07:37:16.215Z,7.00
2023-11-13T07:39:42.771Z,4.63
2023-11-13T07:42:09.235Z,5.68
2023-11-13T07:44:35.698Z,6.25
2023-11-13T07:47:03.965Z,5.40
2023-11-13T07:49:31.867Z,5.75
2023-11-13T07:51:58.920Z,5.82
2023-11-13T07:54:26.695Z,6.68
2023-11-13T07:56:53.403Z,6.70
2023-11-13T07:59:19.901Z,6.32
2023-11-13T08:01:46.420Z,6.63
2023-11-13T08:04:13.065Z,6.40
2023-11-13T08:06:39.608Z,6.05
2023-11-13T08:09:09.766Z,7.32
2023-11-13T08:11:36.924Z,7.25
2023-11-13T08:14:04.394Z,7.40
2023-11-13T08:16:32.569Z,6.10
2023-11-13T08:18:59.241Z,6.55
2023-11-13T08:21:26.392Z,6.43
2023-11-13T08:23:53.006Z,6.95
2023-11-13T08:26:19.549Z,6.88
2023-11-13T08:28:46.505Z,6.95
2023-11-13T08:31:17.574Z,7.22
2023-11-13T08:33:46.894Z,7.00
2023-11-13T08:36:14.349Z,8.43
2023-11-13T08:38:40.874Z,7.70
2023-11-13T08:41:07.402Z,7.93
2023-11-13T08:43:34.552Z,8.25
2023-11-13T08:46:01.677Z,7.53
2023-11-13T08:48:28.938Z,8.32
2023-11-13T08:50:55.666Z,7.15
2023-11-13T08:53:22.240Z,5.60
2023-11-13T08:55:49.084Z,6.70
2023-11-13T08:58:15.663Z,6.25
2023-11-13T09:00:42.736Z,7.57
2023-11-13T09:03:17.374Z,5.97
2023-11-13T09:05:44.062Z,6.53
2023-11-13T09:08:10.559Z,7.32
2023-11-13T09:10:37.510Z,7.28
2023-11-13T09:13:04.318Z,6.22
2023-11-13T09:15:32.091Z,6.93
2023-11-13T09:18:09.652Z,6.97
2023-11-13T09:20:36.358Z,6.25
2023-11-13T09:23:05.246Z,6.13
2023-11-13T09:25:33.422Z,6.57
2023-11-13T09:28:00.849Z,6.65
2023-11-13T09:30:28.044Z,6.72
2023-11-13T09:32:55.173Z,6.85
2023-11-13T09:35:22.497Z,4.97
2023-11-13T09:37:49.430Z,6.05
2023-11-13T09:40:17.036Z,6.03
2023-11-13T09:42:53.987Z,5.63
2023-11-13T09:45:21.494Z,7.03
2023-11-13T09:47:48.780Z,6.15
2023-11-13T09:50:16.835Z,4.63
2023-11-13T09:52:47.239Z,4.43
2023-11-13T09:55:19.392Z,5.78
2023-11-13T09:57:53.547Z,5.80
2023-11-13T10:00:21.475Z,5.85
2023-11-13T10:02:48.265Z,4.88
2023-11-13T10:05:16.546Z,5.18
2023-11-13T10:07:44.982Z,4.75
2023-11-13T10:10:19.184Z,4.97
2023-11-13T10:12:46.142Z,4.57
2023-11-13T10:15:15.647Z,6.03
2023-11-13T10:17:46.086Z,6.60
2023-11-13T10:20:12.718Z,5.18
2023-11-13T10:22:39.248Z,5.35
2023-11-13T10:25:06.832Z,4.63
2023-11-13T10:27:34.170Z,4.38
2023-11-13T10:30:05.163Z,4.13
2023-11-13T10:32:32.254Z,4.32
2023-11-13T10:34:59.126Z,4.50
2023-11-13T10:37:26.042Z,4.70
2023-11-13T10:39:53.041Z,4.25
2023-11-13T10:42:25.151Z,4.63
2023-11-13T10:45:00.546Z,4.63
2023-11-13T10:47:36.584Z,3.78
2023-11-13T10:50:09.478Z,3.88
2023-11-13T10:52:36.345Z,4.80
2023-11-13T10:55:04.317Z,4.45
2023-11-13T10:57:30.874Z,4.25
2023-11-13T10:59:58.414Z,4.43
2023-11-13T11:02:26.077Z,3.95
2023-11-13T11:04:58.620Z,3.75
2023-11-13T11:07:27.584Z,3.63
2023-11-13T11:09:58.422Z,3.78
2023-11-13T11:12:28.705Z,3.78
2023-11-13T11:15:15.455Z,3.17
2023-11-13T11:17:44.713Z,3.92
2023-11-13T11:20:18.576Z,3.80
2023-11-13T11:22:55.068Z,3.88
2023-11-13T11:25:40.438Z,3.20
2023-11-13T11:28:07.060Z,3.13
2023-11-13T11:30:34.191Z,5.47
2023-11-13T11:33:02.939Z,4.70
2023-11-13T11:35:33.077Z,4.78
2023-11-13T11:38:28.469Z,5.40
2023-11-13T11:40:56.968Z,5.18
2023-11-13T11:43:28.871Z,5.10
2023-11-13T11:45:57.472Z,4.40
2023-11-13T11:48:25.388Z,4.50
2023-11-13T11:50:58.972Z,5.20
2023-11-13T11:53:25.606Z,4.47
2023-11-13T11:55:53.850Z,4.57
2023-11-13T11:58:20.353Z,4.80
2023-11-13T12:00:46.894Z,4.15
2023-11-13T12:03:13.537Z,4.43
2023-11-13T12:05:40.800Z,3.78
2023-11-13T12:08:11.184Z,3.90
2023-11-13T12:10:39.642Z,4.25
2023-11-13T12:13:08.141Z,4.30
2023-11-13T12:15:34.862Z,3.90
2023-11-13T12:18:02.266Z,3.40
2023-11-13T12:20:32.147Z,4.07
2023-11-13T12:22:58.933Z,4.38
2023-11-13T12:25:25.679Z,4.03
2023-11-13T12:27:53.106Z,4.15
2023-11-13T12:30:23.371Z,5.25
2023-11-13T12:32:53.995Z,6.07
2023-11-13T12:35:21.781Z,4.68
2023-11-13T12:37:49.348Z,3.75
2023-11-13T12:40:19.860Z,4.43
2023-11-13T12:42:46.774Z,4.20
2023-11-13T12:45:14.121Z,4.05
2023-11-13T12:47:44.800Z,3.88
2023-11-13T12:50:15.012Z,4.15
2023-11-13T12:52:42.072Z,6.45
2023-11-13T12:55:13.257Z,3.97
2023-11-13T12:57:43.425Z,3.53
2023-11-13T13:00:16.361Z,3.55
2023-11-13T13:02:45.303Z,3.92
2023-11-13T13:05:22.750Z,3.78
2023-11-13T13:07:56.080Z,3.50
2023-11-13T13:10:25.111Z,3.97
2023-11-13T13:12:52.193Z,3.70
2023-11-13T13:15:18.983Z,3.10
2023-11-13T13:17:45.584Z,3.42
2023-11-13T13:20:35.584Z,3.78
2023-11-13T13:23:02.522Z,2.90
2023-11-13T13:25:32.027Z,3.65
2023-11-13T13:27:59.223Z,3.60
2023-11-13T13:30:25.923Z,3.13
2023-11-13T13:32:52.845Z,3.45
2023-11-13T13:35:21.396Z,3.15
2023-11-13T13:37:48.189Z,3.38
2023-11-13T13:40:16.618Z,3.45
2023-11-13T13:42:43.817Z,3.30
2023-11-13T13:45:18.440Z,3.35
2023-11-13T13:47:46.315Z,3.20
2023-11-13T13:50:16.078Z,3.25
2023-11-13T13:52:47.847Z,3.75
2023-11-13T13:55:16.891Z,4.18
2023-11-13T13:57:47.139Z,3.70
2023-11-13T14:00:33.360Z,3.63
2023-11-13T14:03:13.222Z,4.28
2023-11-13T14:05:44.022Z,4.20
2023-11-13T14:08:17.513Z,4.47
2023-11-13T14:13:16.024Z,3.75
2023-11-13T14:15:54.269Z,4.30
2023-11-13T14:18:30.922Z,5.22
2023-11-13T14:20:59.914Z,4.50
2023-11-13T14:23:28.130Z,3.95
2023-11-13T14:25:56.050Z,3.38
2023-11-13T14:28:25.912Z,4.75
2023-11-13T14:30:52.772Z,4.35
2023-11-13T14:33:20.532Z,3.72
2023-11-13T14:35:48.524Z,3.67
2023-11-13T14:38:15.829Z,3.72
2023-11-13T14:40:42.735Z,4.38
2023-11-13T14:43:09.427Z,3.97
2023-11-13T14:45:36.001Z,3.72
2023-11-13T14:48:02.679Z,4.38
2023-11-13T14:50:29.381Z,4.60
2023-11-13T14:52:56.716Z,4.63
2023-11-13T14:55:24.057Z,4.82
2023-11-13T14:57:52.022Z,4.63
2023-11-13T15:00:21.247Z,4.85
2023-11-13T15:02:50.512Z,4.68
2023-11-13T15:05:17.291Z,4.70
2023-11-13T15:07:44.886Z,4.72
2023-11-13T15:10:14.042Z,4.82
2023-11-13T15:12:41.278Z,4.72
2023-11-13T15:15:29.246Z,5.60
2023-11-13T15:17:55.797Z,4.50
2023-11-13T15:20:22.433Z,5.25
2023-11-13T15:25:19.587Z,4.90
2023-11-13T15:27:46.344Z,5.15
2023-11-13T15:30:14.357Z,4.70
2023-11-13T15:32:43.974Z,5.88
2023-11-13T15:35:11.054Z,5.45
2023-11-13T15:37:38.034Z,5.70
2023-11-13T15:40:05.395Z,5.20
2023-11-13T15:42:33.461Z,5.80
2023-11-13T15:45:00.782Z,5.03
2023-11-13T15:47:27.807Z,5.15
2023-11-13T15:49:54.523Z,4.68
2023-11-13T15:52:22.596Z,4.95
2023-11-13T15:54:49.385Z,4.30
2023-11-13T15:57:16.519Z,4.55
2023-11-13T15:59:43.023Z,5.18
2023-11-13T16:02:09.539Z,4.47
2023-11-13T16:04:39.336Z,4.57
2023-11-13T16:07:07.995Z,5.43
2023-11-13T16:09:34.896Z,5.10
2023-11-13T16:12:02.342Z,4.75
2023-11-13T16:14:33.584Z,6.18
2023-11-13T16:17:01.156Z,5.25
2023-11-13T16:19:28.259Z,5.07
2023-11-13T16:21:54.884Z,4.80
2023-11-13T16:24:21.406Z,5.60
2023-11-13T16:26:53.478Z,5.30
2023-11-13T16:29:20.972Z,5.57
2023-11-13T16:31:47.804Z,6.22
2023-11-13T16:34:14.327Z,5.78
2023-11-13T16:36:40.832Z,10.07
2023-11-13T16:39:10.148Z,9.68
2023-11-13T16:41:37.123Z,6.70
2023-11-13T16:44:05.087Z,9.82
2023-11-13T16:46:34.327Z,8.15
2023-11-13T16:49:06.604Z,6.30
2023-11-13T16:51:33.361Z,9.80
2023-11-13T16:54:00.060Z,6.50
2023-11-13T16:56:27.160Z,7.80
2023-11-13T16:58:54.035Z,7.68
2023-11-13T17:01:22.572Z,8.23
2023-11-13T17:03:49.206Z,7.88
2023-11-13T17:06:17.152Z,6.72
2023-11-13T17:08:43.874Z,7.75
2023-11-13T17:11:10.986Z,7.15
2023-11-13T17:13:38.543Z,7.65
2023-11-13T17:16:06.130Z,8.48
2023-11-13T17:18:32.738Z,8.40
2023-11-13T17:20:59.360Z,6.53
2023-11-13T17:23:25.823Z,6.03
2023-11-13T17:25:53.438Z,4.82
2023-11-13T17:28:20.057Z,7.45
2023-11-13T17:30:46.628Z,7.22
2023-11-13T17:33:15.245Z,8.52
2023-11-13T17:35:41.785Z,6.93
2023-11-13T17:38:08.694Z,8.48
2023-11-13T17:40:35.946Z,7.50
2023-11-13T17:43:02.421Z,7.35
2023-11-13T17:45:28.940Z,5.88
2023-11-13T17:47:56.745Z,6.13
2023-11-13T17:50:24.914Z,6.50
2023-11-13T17:52:52.535Z,5.97
2023-11-13T17:55:19.148Z,6.22
2023-11-13T17:57:45.631Z,5.80
2023-11-13T18:00:12.575Z,6.88
2023-11-13T18:02:39.748Z,6.68
2023-11-13T18:05:07.951Z,7.00
2023-11-13T18:07:37.820Z,7.70
2023-11-13T18:10:07.539Z,6.28
2023-11-13T18:12:34.169Z,7.13
2023-11-13T18:15:02.793Z,5.90
2023-11-13T18:17:29.486Z,12.63
2023-11-13T18:19:56.876Z,6.53
2023-11-13T18:22:23.454Z,10.63
2023-11-13T18:24:49.992Z,9.23
2023-11-13T18:27:17.403Z,12.38
2023-11-13T18:29:44.260Z,10.30
2023-11-13T18:32:11.028Z,12.65
2023-11-13T18:34:38.406Z,8.73
2023-11-13T18:37:05.566Z,8.35
2023-11-13T18:39:32.047Z,7.80
2023-11-13T18:41:58.520Z,9.32
2023-11-13T18:44:27.854Z,9.85
2023-11-13T18:46:54.491Z,9.40
2023-11-13T18:49:21.585Z,7.45
2023-11-13T18:51:48.123Z,7.93
2023-11-13T18:54:14.655Z,9.35
2023-11-13T18:56:41.192Z,8.90
2023-11-13T18:59:07.617Z,8.60
2023-11-13T19:01:34.687Z,11.77
2023-11-13T19:04:01.478Z,6.95
2023-11-13T19:06:28.266Z,6.95
2023-11-13T19:08:54.738Z,8.32
2023-11-13T19:11:21.430Z,7.25
2023-11-13T19:13:50.011Z,8.40
2023-11-13T19:16:16.769Z,7.57
2023-11-13T19:18:43.332Z,6.80
2023-11-13T19:21:10.270Z,6.55
2023-11-13T19:23:36.849Z,6.72
2023-11-13T19:26:06.465Z,7.13
2023-11-13T19:28:33.093Z,6.65
2023-11-13T19:31:00.562Z,7.55
2023-11-13T19:33:27.413Z,7.40
2023-11-13T19:35:54.214Z,6.32
2023-11-13T19:38:20.898Z,6.15
2023-11-13T19:40:47.497Z,6.20
2023-11-13T19:43:14.109Z,6.40
2023-11-13T19:45:40.580Z,9.88
2023-11-13T19:48:07.998Z,9.07
2023-11-13T19:50:35.774Z,9.52
2023-11-13T19:53:03.454Z,9.25
2023-11-13T19:55:30.210Z,12.02
2023-11-13T19:57:56.835Z,8.02
2023-11-13T20:00:24.787Z,6.55
2023-11-13T20:02:57.671Z,7.00
2023-11-13T20:05:24.403Z,7.07
2023-11-13T20:07:52.544Z,7.20
2023-11-13T20:10:19.295Z,6.70
2023-11-13T20:12:45.808Z,7.32
2023-11-13T20:15:12.274Z,7.78
2023-11-13T20:17:39.011Z,7.07
2023-11-13T20:20:08.941Z,7.78
2023-11-13T20:22:35.454Z,7.60
2023-11-13T20:25:01.977Z,7.85
2023-11-13T20:27:28.461Z,8.30
2023-11-13T20:30:03.626Z,8.07
2023-11-13T20:32:35.029Z,8.65
2023-11-13T20:35:01.997Z,8.82
2023-11-13T20:37:28.783Z,8.23
2023-11-13T20:39:55.388Z,9.13
2023-11-13T20:42:21.936Z,9.27
2023-11-13T20:44:48.542Z,7.88
2023-11-13T20:47:15.173Z,7.80
2023-11-13T20:49:41.741Z,8.45
2023-11-13T20:52:08.461Z,8.65
2023-11-13T20:54:35.249Z,8.35
2023-11-13T20:57:01.926Z,9.25
2023-11-13T20:59:28.807Z,8.55
2023-11-13T21:01:55.465Z,8.52
2023-11-13T21:04:22.075Z,9.43
2023-11-13T21:06:51.023Z,8.95
2023-11-13T21:09:17.578Z,8.93
2023-11-13T21:11:44.172Z,9.75
2023-11-13T21:14:11.295Z,8.32
2023-11-13T21:16:38.173Z,8.57
2023-11-13T21:19:04.815Z,9.23
2023-11-13T21:21:32.208Z,8.52
2023-11-13T21:23:58.872Z,8.48
2023-11-13T21:26:25.365Z,8.63
2023-11-13T21:28:51.875Z,8.30
2023-11-13T21:31:18.743Z,7.88
2023-11-13T21:33:45.360Z,8.77
2023-11-13T21:36:12.012Z,8.20
2023-11-13T21:38:39.127Z,8.60
2023-11-13T21:41:07.719Z,9.07
2023-11-13T21:43:35.834Z,9.45
2023-11-13T21:46:05.235Z,10.88
2023-11-13T21:48:31.949Z,10.20
2023-11-13T21:50:58.540Z,9.45
2023-11-13T21:53:26.933Z,9.13
2023-11-13T21:55:55.069Z,9.70
2023-11-13T21:58:21.967Z,9.43
2023-11-13T22:00:48.612Z,8.73
2023-11-13T22:03:15.303Z,8.73
2023-11-13T22:05:41.854Z,8.45
2023-11-13T22:08:09.505Z,8.02
2023-11-13T22:10:37.743Z,8.70
2023-11-13T22:13:05.193Z,8.15
2023-11-13T22:15:31.825Z,7.85
2023-11-13T22:17:58.393Z,7.63
2023-11-13T22:20:29.174Z,8.77
2023-11-13T22:22:56.914Z,7.30
2023-11-13T22:25:23.591Z,8.10
2023-11-13T22:27:51.978Z,7.22
2023-11-13T22:30:18.537Z,7.38
2023-11-13T22:32:45.181Z,8.23
2023-11-13T22:35:11.779Z,8.02
2023-11-13T22:37:38.490Z,8.25
2023-11-13T22:40:05.776Z,7.88
2023-11-13T22:42:34.337Z,7.85
2023-11-13T22:45:01.039Z,7.03
2023-11-13T22:47:27.573Z,8.18
2023-11-13T22:49:54.216Z,7.38
2023-11-13T22:52:21.141Z,8.13
2023-11-13T22:54:47.716Z,7.97
2023-11-13T22:57:14.156Z,5.93
2023-11-13T22:59:40.720Z,5.78
2023-11-13T23:02:07.489Z,5.90
2023-11-13T23:04:34.610Z,6.35
2023-11-13T23:07:01.139Z,6.13
2023-11-13T23:09:29.387Z,6.53
2023-11-13T23:11:55.962Z,5.78
2023-11-13T23:14:41.122Z,6.60
2023-11-13T23:17:07.754Z,6.90
2023-11-13T23:19:34.404Z,7.55
2023-11-13T23:22:04.520Z,6.68
2023-11-13T23:24:32.934Z,6.95
2023-11-13T23:27:01.318Z,7.20
2023-11-13T23:29:28.515Z,6.60
2023-11-13T23:31:55.530Z,6.63
2023-11-13T23:34:22.165Z,7.45
2023-11-13T23:36:49.792Z,7.10
2023-11-13T23:39:17.225Z,5.38
2023-11-13T23:41:43.744Z,5.18
2023-11-13T23:44:11.819Z,5.60
2023-11-13T23:46:40.105Z,5.35
2023-11-13T23:49:07.284Z,5.53
2023-11-13T23:51:33.929Z,5.35
2023-11-13T23:54:01.447Z,4.53
2023-11-13T23:56:28.692Z,4.75
2023-11-13T23:58:57.736Z,5.45
